createdAt,value
2022-07-29T00:01:04.124Z,19.20
2022-07-29T00:03:31.310Z,19.20
2022-07-29T00:05:58.534Z,19.20
2022-07-29T00:08:26.702Z,19.20
2022-07-29T00:10:53.641Z,19.10
2022-07-29T00:13:32.493Z,19.10
2022-07-29T00:16:04.526Z,19.00
2022-07-29T00:18:32.648Z,19.00
2022-07-29T00:20:59.609Z,19.10
2022-07-29T00:23:26.613Z,19.10
2022-07-29T00:25:53.608Z,19.00
2022-07-29T00:28:20.636Z,18.90
2022-07-29T00:30:47.577Z,18.90
2022-07-29T00:33:14.501Z,18.90
2022-07-29T00:35:47.297Z,19.00
2022-07-29T00:38:16.214Z,18.90
2022-07-29T00:40:44.708Z,18.80
2022-07-29T00:43:13.271Z,18.80
2022-07-29T00:45:41.381Z,18.80
2022-07-29T00:48:09.670Z,18.80
2022-07-29T00:50:37.244Z,18.80
2022-07-29T00:53:07.133Z,18.70
2022-07-29T00:55:34.381Z,18.70
2022-07-29T00:58:01.663Z,18.70
2022-07-29T01:00:30.202Z,18.70
2022-07-29T01:02:57.583Z,18.60
2022-07-29T01:05:48.554Z,18.70
2022-07-29T01:08:16.447Z,18.70
2022-07-29T01:10:44.059Z,18.60
2022-07-29T01:13:12.948Z,18.60
2022-07-29T01:15:49.412Z,18.50
2022-07-29T01:18:37.555Z,18.50
2022-07-29T01:21:22.411Z,18.50
2022-07-29T01:24:11.270Z,18.40
2022-07-29T01:26:58.639Z,18.40
2022-07-29T01:29:40.333Z,18.30
2022-07-29T01:32:28.467Z,18.30
2022-07-29T01:35:23.979Z,18.30
2022-07-29T01:38:05.595Z,18.20
2022-07-29T01:40:43.508Z,18.10
2022-07-29T01:43:41.765Z,18.10
2022-07-29T01:46:14.664Z,18.20
2022-07-29T01:48:58.502Z,18.20
2022-07-29T01:51:31.557Z,18.10
2022-07-29T01:54:09.595Z,18.20
2022-07-29T01:56:38.929Z,18.20
2022-07-29T01:59:09.160Z,18.10
2022-07-29T02:01:40.130Z,18.00
2022-07-29T02:04:11.336Z,18.00
2022-07-29T02:06:55.944Z,18.00
2022-07-29T02:09:25.772Z,17.90
2022-07-29T02:11:56.225Z,17.90
2022-07-29T02:14:24.598Z,17.80
2022-07-29T02:16:54.763Z,17.70
2022-07-29T02:19:24.561Z,17.70
2022-07-29T02:21:54.838Z,17.70
2022-07-29T02:24:23.523Z,17.60
2022-07-29T02:26:52.337Z,17.70
2022-07-29T02:29:24.023Z,17.60
2022-07-29T02:31:52.845Z,17.60
2022-07-29T02:34:21.825Z,17.60
2022-07-29T02:36:50.503Z,17.70
2022-07-29T02:39:18.196Z,17.70
2022-07-29T02:41:51.234Z,17.80
2022-07-29T02:44:22.397Z,17.70
2022-07-29T02:47:04.049Z,17.60
2022-07-29T02:49:41.896Z,17.60
2022-07-29T02:52:42.823Z,17.50
2022-07-29T02:55:33.053Z,17.50
2022-07-29T02:58:09.430Z,17.50
2022-07-29T03:00:40.351Z,17.40
2022-07-29T03:03:16.053Z,17.40
2022-07-29T03:05:43.204Z,17.40
2022-07-29T03:08:12.097Z,17.30
2022-07-29T03:10:43.716Z,17.30
2022-07-29T03:13:11.519Z,17.30
2022-07-29T03:15:38.692Z,17.30
2022-07-29T03:18:07.103Z,17.30
2022-07-29T03:20:34.173Z,17.30
2022-07-29T03:23:01.274Z,17.30
2022-07-29T03:25:28.397Z,17.20
2022-07-29T03:27:55.771Z,17.20
2022-07-29T03:30:22.824Z,17.20
2022-07-29T03:32:52.572Z,17.20
2022-07-29T03:35:22.623Z,17.30
2022-07-29T03:37:49.808Z,17.20
2022-07-29T03:40:28.906Z,17.10
2022-07-29T03:42:57.201Z,17.10
2022-07-29T03:45:26.726Z,17.10
2022-07-29T03:48:00.915Z,17.10
2022-07-29T03:50:29.665Z,17.10
2022-07-29T03:52:56.661Z,17.10
2022-07-29T03:55:24.365Z,17.10
2022-07-29T03:57:52.309Z,17.10
2022-07-29T04:00:20.452Z,17.10
2022-07-29T04:02:49.917Z,17.10
2022-07-29T04:05:18.745Z,17.20
2022-07-29T04:07:46.809Z,17.10
2022-07-29T04:10:16.731Z,17.20
2022-07-29T04:12:44.333Z,17.20
2022-07-29T04:15:12.165Z,17.20
2022-07-29T04:17:40.036Z,17.20
2022-07-29T04:20:07.665Z,17.20
2022-07-29T04:22:35.640Z,17.20
2022-07-29T04:25:04.191Z,17.20
2022-07-29T04:27:31.577Z,17.20
2022-07-29T04:29:58.686Z,17.10
2022-07-29T04:32:26.296Z,17.20
2022-07-29T04:34:53.657Z,17.20
2022-07-29T04:37:20.646Z,17.20
2022-07-29T04:39:47.613Z,17.30
2022-07-29T04:42:14.506Z,17.20
2022-07-29T04:44:41.534Z,17.40
2022-07-29T04:47:10.500Z,17.40
2022-07-29T04:49:40.574Z,17.40
2022-07-29T04:52:07.890Z,17.50
2022-07-29T04:54:34.810Z,17.50
2022-07-29T04:57:02.011Z,17.60
2022-07-29T04:59:29.129Z,17.70
2022-07-29T05:01:56.154Z,17.70
2022-07-29T05:04:24.073Z,17.70
2022-07-29T05:06:51.034Z,17.60
2022-07-29T05:09:17.968Z,17.60
2022-07-29T05:11:44.931Z,17.50
2022-07-29T05:14:12.116Z,17.60
2022-07-29T05:16:41.021Z,17.60
2022-07-29T05:19:13.982Z,17.60
2022-07-29T05:21:41.568Z,17.60
2022-07-29T05:24:09.027Z,17.70
2022-07-29T05:26:35.942Z,17.90
2022-07-29T05:29:03.029Z,18.10
2022-07-29T05:31:30.062Z,18.40
2022-07-29T05:33:57.089Z,18.50
2022-07-29T05:36:24.336Z,18.80
2022-07-29T05:38:53.109Z,18.80
2022-07-29T05:41:20.706Z,19.10
2022-07-29T05:43:47.745Z,19.30
2022-07-29T05:46:15.243Z,19.50
2022-07-29T05:48:42.313Z,19.80
2022-07-29T05:51:09.237Z,20.00
2022-07-29T05:53:36.188Z,20.20
2022-07-29T05:56:06.693Z,20.20
2022-07-29T05:58:33.749Z,20.30
2022-07-29T06:01:01.596Z,20.30
2022-07-29T06:03:29.074Z,20.40
2022-07-29T06:05:56.607Z,20.60
2022-07-29T06:08:23.649Z,20.70
2022-07-29T06:10:50.587Z,20.70
2022-07-29T06:13:17.559Z,20.70
2022-07-29T06:15:44.774Z,20.70
2022-07-29T06:18:12.968Z,20.80
2022-07-29T06:20:40.878Z,20.90
2022-07-29T06:23:08.022Z,21.00
2022-07-29T06:25:36.805Z,21.00
2022-07-29T06:28:04.766Z,21.10
2022-07-29T06:30:31.755Z,21.10
2022-07-29T06:32:58.663Z,21.20
2022-07-29T06:35:40.900Z,21.20
2022-07-29T06:38:34.030Z,21.10
2022-07-29T06:41:01.098Z,20.90
2022-07-29T06:43:35.040Z,21.10
2022-07-29T06:46:07.882Z,21.30
2022-07-29T06:48:35.543Z,21.50
2022-07-29T06:51:03.687Z,21.50
2022-07-29T06:53:31.446Z,21.60
2022-07-29T06:56:00.214Z,21.80
2022-07-29T06:58:28.340Z,22.10
2022-07-29T07:00:56.781Z,22.30
2022-07-29T07:03:24.784Z,22.50
2022-07-29T07:05:54.536Z,22.70
2022-07-29T07:08:22.965Z,22.90
2022-07-29T07:10:50.086Z,23.00
2022-07-29T07:13:18.189Z,23.10
2022-07-29T07:15:46.491Z,23.30
2022-07-29T07:18:13.478Z,23.20
2022-07-29T07:20:40.463Z,23.30
2022-07-29T07:23:07.572Z,23.10
2022-07-29T07:25:34.654Z,22.70
2022-07-29T07:28:02.568Z,22.50
2022-07-29T07:30:30.223Z,22.60
2022-07-29T07:32:57.183Z,22.50
2022-07-29T07:35:24.189Z,22.40
2022-07-29T07:37:51.094Z,22.50
2022-07-29T07:40:18.602Z,22.70
2022-07-29T07:42:46.028Z,22.80
2022-07-29T07:45:16.446Z,23.00
2022-07-29T07:47:44.123Z,23.10
2022-07-29T07:50:16.560Z,23.20
2022-07-29T07:52:55.473Z,23.40
2022-07-29T07:55:22.541Z,23.60
2022-07-29T07:57:49.415Z,24.00
2022-07-29T08:00:17.309Z,24.20
2022-07-29T08:02:46.067Z,24.40
2022-07-29T08:05:17.953Z,24.70
2022-07-29T08:07:48.420Z,25.00
2022-07-29T08:10:39.994Z,25.10
2022-07-29T08:13:08.507Z,25.30
2022-07-29T08:15:35.786Z,25.50
2022-07-29T08:18:08.046Z,25.70
2022-07-29T08:20:37.386Z,25.90
2022-07-29T08:23:05.640Z,26.10
2022-07-29T08:25:33.184Z,26.20
2022-07-29T08:28:04.672Z,26.30
2022-07-29T08:30:33.400Z,26.40
2022-07-29T08:33:00.592Z,26.60
2022-07-29T08:35:32.100Z,26.70
2022-07-29T08:38:01.884Z,27.00
2022-07-29T08:40:32.443Z,27.20
2022-07-29T08:43:05.112Z,27.40
2022-07-29T08:45:48.821Z,27.50
2022-07-29T08:48:22.573Z,27.60
2022-07-29T08:50:55.260Z,28.00
2022-07-29T08:53:22.958Z,28.10
2022-07-29T08:55:50.861Z,28.20
2022-07-29T08:58:20.441Z,28.30
2022-07-29T09:00:55.788Z,28.50
2022-07-29T09:03:30.756Z,28.40
2022-07-29T09:05:59.859Z,28.40
2022-07-29T09:08:27.889Z,28.50
2022-07-29T09:10:56.817Z,28.50
2022-07-29T09:13:23.976Z,28.60
2022-07-29T09:15:50.850Z,28.80
2022-07-29T09:18:38.215Z,28.90
2022-07-29T09:21:25.922Z,29.10
2022-07-29T09:24:08.181Z,29.20
2022-07-29T09:26:38.483Z,29.20
2022-07-29T09:29:13.748Z,29.30
2022-07-29T09:31:43.021Z,29.40
2022-07-29T09:34:11.299Z,29.40
2022-07-29T09:36:43.531Z,29.60
2022-07-29T09:39:10.579Z,29.70
2022-07-29T09:41:53.778Z,29.70
2022-07-29T09:44:22.110Z,29.80
2022-07-29T09:47:07.173Z,29.90
2022-07-29T09:49:35.445Z,29.80
2022-07-29T09:52:06.885Z,29.90
2022-07-29T09:54:37.752Z,29.90
2022-07-29T09:57:06.919Z,30.10
2022-07-29T09:59:34.335Z,30.10
2022-07-29T10:02:01.788Z,30.00
2022-07-29T10:04:42.732Z,30.00
2022-07-29T10:07:10.865Z,30.10
2022-07-29T10:09:37.978Z,30.30
2022-07-29T10:12:14.809Z,30.40
2022-07-29T10:14:43.038Z,30.60
2022-07-29T10:17:11.331Z,30.90
2022-07-29T10:19:39.733Z,31.00
2022-07-29T10:22:10.009Z,31.20
2022-07-29T10:24:38.831Z,31.10
2022-07-29T10:27:10.206Z,31.20
2022-07-29T10:29:37.476Z,30.80
2022-07-29T10:32:19.872Z,30.10
2022-07-29T10:35:07.188Z,30.00
2022-07-29T10:38:01.021Z,30.10
2022-07-29T10:41:20.457Z,30.40
2022-07-29T10:43:51.375Z,30.60
2022-07-29T10:46:19.928Z,30.80
2022-07-29T10:49:24.775Z,31.00
2022-07-29T10:52:10.502Z,30.90
2022-07-29T10:54:42.481Z,30.70
2022-07-29T10:57:16.736Z,30.70
2022-07-29T10:59:46.122Z,30.60
2022-07-29T11:02:42.006Z,30.70
2022-07-29T11:05:18.178Z,31.10
2022-07-29T11:08:20.197Z,31.60
2022-07-29T11:10:49.880Z,31.60
2022-07-29T11:13:46.510Z,31.30
2022-07-29T11:16:16.194Z,31.10
2022-07-29T11:19:13.434Z,31.20
2022-07-29T11:22:05.395Z,31.30
2022-07-29T11:24:34.879Z,31.50
2022-07-29T11:27:40.581Z,31.60
2022-07-29T11:30:08.500Z,31.20
2022-07-29T11:32:40.446Z,30.60
2022-07-29T11:35:37.989Z,30.10
2022-07-29T11:38:31.967Z,29.70
2022-07-29T11:41:18.276Z,29.80
2022-07-29T11:43:53.847Z,29.70
2022-07-29T11:46:50.439Z,29.60
2022-07-29T11:49:32.352Z,29.60
2022-07-29T11:52:05.597Z,29.50
2022-07-29T11:54:38.865Z,29.20
2022-07-29T11:57:22.172Z,29.00
2022-07-29T11:59:49.690Z,29.00
2022-07-29T12:02:37.343Z,29.30
2022-07-29T12:05:10.558Z,29.70
2022-07-29T12:07:41.013Z,29.60
2022-07-29T12:10:11.626Z,29.80
2022-07-29T12:12:53.648Z,29.90
2022-07-29T12:15:22.412Z,29.50
2022-07-29T12:17:50.117Z,29.10
2022-07-29T12:20:30.978Z,28.30
2022-07-29T12:22:58.048Z,27.40
2022-07-29T12:25:33.847Z,26.60
2022-07-29T12:28:03.286Z,25.90
2022-07-29T12:30:43.070Z,25.60
2022-07-29T12:33:14.181Z,25.80
2022-07-29T12:35:42.497Z,25.70
2022-07-29T12:38:12.250Z,26.00
2022-07-29T12:40:39.516Z,26.20
2022-07-29T12:43:12.526Z,26.30
2022-07-29T12:45:41.197Z,26.50
2022-07-29T12:48:11.382Z,26.70
2022-07-29T12:50:53.980Z,27.00
2022-07-29T12:53:21.248Z,27.40
2022-07-29T12:55:52.461Z,27.70
2022-07-29T12:58:31.357Z,28.00
2022-07-29T13:01:16.875Z,28.10
2022-07-29T13:04:00.921Z,28.20
2022-07-29T13:06:38.187Z,28.30
2022-07-29T13:09:17.254Z,28.40
2022-07-29T13:11:48.939Z,28.30
2022-07-29T13:14:32.742Z,28.20
2022-07-29T13:17:07.438Z,28.10
2022-07-29T13:19:39.040Z,27.80
2022-07-29T13:22:06.230Z,27.70
2022-07-29T13:24:33.675Z,27.70
2022-07-29T13:27:00.639Z,27.60
2022-07-29T13:29:31.479Z,27.20
2022-07-29T13:31:59.224Z,27.00
2022-07-29T13:34:26.347Z,26.50
2022-07-29T13:36:53.370Z,26.00
2022-07-29T13:39:20.328Z,25.60
2022-07-29T13:41:47.312Z,25.20
2022-07-29T13:44:16.187Z,25.00
2022-07-29T13:46:43.124Z,24.90
2022-07-29T13:49:10.129Z,24.70
2022-07-29T13:51:37.245Z,24.60
2022-07-29T13:54:04.770Z,24.70
2022-07-29T13:56:31.797Z,24.60
2022-07-29T13:58:58.742Z,24.30
2022-07-29T14:01:26.202Z,23.90
2022-07-29T14:03:53.376Z,23.70
2022-07-29T14:06:22.159Z,23.60
2022-07-29T14:08:49.282Z,23.60
2022-07-29T14:11:16.308Z,23.60
2022-07-29T14:13:43.215Z,23.70
2022-07-29T14:16:10.097Z,23.70
2022-07-29T14:18:37.134Z,23.80
2022-07-29T14:21:04.380Z,23.90
2022-07-29T14:23:31.396Z,24.00
2022-07-29T14:25:59.106Z,24.30
2022-07-29T14:28:26.119Z,24.40
2022-07-29T14:30:53.096Z,24.60
2022-07-29T14:33:20.031Z,24.80
2022-07-29T14:35:46.951Z,24.90
2022-07-29T14:38:13.825Z,25.10
2022-07-29T14:40:40.808Z,25.30
2022-07-29T14:43:07.716Z,25.40
2022-07-29T14:45:34.741Z,25.50
2022-07-29T14:48:01.908Z,25.60
2022-07-29T14:50:31.288Z,25.70
2022-07-29T14:52:59.966Z,25.70
2022-07-29T14:55:27.330Z,25.80
2022-07-29T14:58:03.086Z,25.80
2022-07-29T15:00:35.152Z,25.90
2022-07-29T15:03:03.131Z,25.90
2022-07-29T15:05:32.179Z,26.00
2022-07-29T15:08:00.366Z,26.10
2022-07-29T15:10:28.246Z,26.20
2022-07-29T15:12:56.224Z,26.20
2022-07-29T15:15:23.215Z,26.30
2022-07-29T15:17:50.197Z,26.30
2022-07-29T15:20:17.268Z,26.30
2022-07-29T15:22:44.402Z,26.20
2022-07-29T15:25:11.746Z,26.20
2022-07-29T15:27:38.884Z,26.20
2022-07-29T15:30:06.395Z,26.20
2022-07-29T15:32:33.399Z,26.30
2022-07-29T15:35:00.349Z,26.30
2022-07-29T15:37:48.667Z,26.40
2022-07-29T15:40:16.498Z,26.50
2022-07-29T15:42:43.464Z,26.70
2022-07-29T15:45:10.520Z,26.70
2022-07-29T15:47:37.540Z,26.70
2022-07-29T15:50:04.757Z,26.80
2022-07-29T15:52:32.004Z,26.80
2022-07-29T15:54:58.977Z,26.90
2022-07-29T15:57:25.975Z,27.00
2022-07-29T15:59:53.016Z,27.00
2022-07-29T16:02:20.783Z,27.10
2022-07-29T16:04:48.361Z,27.20
2022-07-29T16:07:15.977Z,27.20
2022-07-29T16:09:45.426Z,27.30
2022-07-29T16:12:18.166Z,27.20
2022-07-29T16:14:45.244Z,27.10
2022-07-29T16:17:15.035Z,27.00
2022-07-29T16:19:43.723Z,27.00
2022-07-29T16:22:11.807Z,26.90
2022-07-29T16:24:39.075Z,26.90
2022-07-29T16:27:06.356Z,26.90
2022-07-29T16:29:33.563Z,26.70
2022-07-29T16:32:01.388Z,26.70
2022-07-29T16:34:28.432Z,26.70
2022-07-29T16:36:55.401Z,26.70
2022-07-29T16:39:22.527Z,26.80
2022-07-29T16:41:49.660Z,26.90
2022-07-29T16:44:16.720Z,27.00
2022-07-29T16:46:45.673Z,27.10
2022-07-29T16:49:18.368Z,27.10
2022-07-29T16:51:47.881Z,27.10
2022-07-29T16:54:15.065Z,27.10
2022-07-29T16:56:42.195Z,27.10
2022-07-29T16:59:09.221Z,26.90
2022-07-29T17:01:36.304Z,27.00
2022-07-29T17:04:06.265Z,26.90
2022-07-29T17:06:36.968Z,26.70
2022-07-29T17:09:06.469Z,26.60
2022-07-29T17:11:53.543Z,26.70
2022-07-29T17:14:25.443Z,26.70
2022-07-29T17:17:01.265Z,26.70
2022-07-29T17:19:35.154Z,26.60
2022-07-29T17:22:14.094Z,26.60
2022-07-29T17:24:45.650Z,26.70
2022-07-29T17:27:12.725Z,26.60
2022-07-29T17:29:40.131Z,26.50
2022-07-29T17:32:08.941Z,26.40
2022-07-29T17:34:40.724Z,26.40
2022-07-29T17:37:10.654Z,26.20
2022-07-29T17:39:41.191Z,26.20
2022-07-29T17:42:10.860Z,26.20
2022-07-29T17:44:38.681Z,26.20
2022-07-29T17:47:07.853Z,26.20
2022-07-29T17:49:37.661Z,26.30
2022-07-29T17:52:04.885Z,26.40
2022-07-29T17:54:31.949Z,26.40
2022-07-29T17:56:59.577Z,26.50
2022-07-29T17:59:27.116Z,26.60
2022-07-29T18:01:54.411Z,26.60
2022-07-29T18:04:23.313Z,26.50
2022-07-29T18:06:50.698Z,26.60
2022-07-29T18:09:17.580Z,26.70
2022-07-29T18:11:45.751Z,26.80
2022-07-29T18:14:13.373Z,26.70
2022-07-29T18:16:40.703Z,26.90
2022-07-29T18:19:07.776Z,26.90
2022-07-29T18:21:42.691Z,27.00
2022-07-29T18:24:18.791Z,27.10
2022-07-29T18:26:47.101Z,27.10
2022-07-29T18:29:14.058Z,27.10
2022-07-29T18:31:41.133Z,26.90
2022-07-29T18:34:08.252Z,26.70
2022-07-29T18:36:35.209Z,26.50
2022-07-29T18:39:02.395Z,26.40
2022-07-29T18:41:29.599Z,26.30
2022-07-29T18:43:56.543Z,26.20
2022-07-29T18:46:23.537Z,26.10
2022-07-29T18:48:52.693Z,25.80
2022-07-29T18:51:19.668Z,25.70
2022-07-29T18:53:46.845Z,25.70
2022-07-29T18:56:14.178Z,25.60
2022-07-29T18:58:41.407Z,25.50
2022-07-29T19:01:08.382Z,25.40
2022-07-29T19:03:35.607Z,25.20
2022-07-29T19:06:02.628Z,25.00
2022-07-29T19:08:29.628Z,24.80
2022-07-29T19:10:56.559Z,24.60
2022-07-29T19:13:23.464Z,24.50
2022-07-29T19:15:50.391Z,24.40
2022-07-29T19:18:17.778Z,24.20
2022-07-29T19:20:44.715Z,24.10
2022-07-29T19:23:11.706Z,23.90
2022-07-29T19:25:53.294Z,23.70
2022-07-29T19:28:21.304Z,23.60
2022-07-29T19:30:48.486Z,23.40
2022-07-29T19:33:17.604Z,23.20
2022-07-29T19:35:45.674Z,23.10
2022-07-29T19:38:12.678Z,23.00
2022-07-29T19:40:39.979Z,22.90
2022-07-29T19:43:52.171Z,22.90
2022-07-29T19:45:54.097Z,22.80
2022-07-29T19:48:21.041Z,22.80
2022-07-29T19:50:47.965Z,22.60
2022-07-29T19:53:14.973Z,22.50
2022-07-29T19:55:42.404Z,22.40
2022-07-29T19:58:09.347Z,22.30
2022-07-29T20:00:36.246Z,22.30
2022-07-29T20:03:04.753Z,22.20
2022-07-29T20:05:31.807Z,22.00
2022-07-29T20:07:59.065Z,21.90
2022-07-29T20:10:26.098Z,21.90
2022-07-29T20:12:53.810Z,21.80
2022-07-29T20:15:21.990Z,21.60
2022-07-29T20:17:49.757Z,21.50
2022-07-29T20:20:19.063Z,21.30
2022-07-29T20:22:46.068Z,21.20
2022-07-29T20:25:15.346Z,21.10
2022-07-29T20:27:43.025Z,20.90
2022-07-29T20:30:13.386Z,20.80
2022-07-29T20:32:41.340Z,20.70
2022-07-29T20:35:09.991Z,20.70
2022-07-29T20:37:55.905Z,20.70
2022-07-29T20:40:26.816Z,20.60
2022-07-29T20:42:55.135Z,20.60
2022-07-29T20:45:23.615Z,20.50
2022-07-29T20:47:52.048Z,20.40
2022-07-29T20:50:20.527Z,20.40
2022-07-29T20:52:51.096Z,20.30
2022-07-29T20:55:18.031Z,20.30
2022-07-29T20:57:44.984Z,20.30
2022-07-29T21:00:12.405Z,20.20
2022-07-29T21:02:39.607Z,20.10
2022-07-29T21:05:07.186Z,20.00
2022-07-29T21:07:34.120Z,19.90
2022-07-29T21:10:01.031Z,20.00
2022-07-29T21:12:30.200Z,19.90
2022-07-29T21:14:57.826Z,19.80
2022-07-29T21:17:25.063Z,19.80
2022-07-29T21:19:53.425Z,19.70
2022-07-29T21:22:22.391Z,19.70
2022-07-29T21:24:49.644Z,19.60
2022-07-29T21:27:38.211Z,19.40
2022-07-29T21:30:07.671Z,19.30
2022-07-29T21:32:34.842Z,19.20
2022-07-29T21:35:01.915Z,19.20
2022-07-29T21:37:29.139Z,19.30
2022-07-29T21:39:56.143Z,19.30
2022-07-29T21:42:23.054Z,19.30
2022-07-29T21:44:51.838Z,19.30
2022-07-29T21:47:18.881Z,19.40
2022-07-29T21:49:46.601Z,19.40
2022-07-29T21:52:13.555Z,19.50
2022-07-29T21:54:41.841Z,19.40
2022-07-29T21:57:09.500Z,19.40
2022-07-29T21:59:36.557Z,19.40
2022-07-29T22:02:03.866Z,19.40
2022-07-29T22:04:31.750Z,19.30
2022-07-29T22:06:59.225Z,19.30
2022-07-29T22:09:26.830Z,19.30
2022-07-29T22:11:54.748Z,19.30
2022-07-29T22:14:22.192Z,19.30
2022-07-29T22:16:49.229Z,19.10
2022-07-29T22:19:16.200Z,19.20
2022-07-29T22:21:43.246Z,19.30
2022-07-29T22:24:11.262Z,19.30
2022-07-29T22:26:38.521Z,19.30
2022-07-29T22:29:06.435Z,19.30
2022-07-29T22:31:33.645Z,19.20
2022-07-29T22:34:00.789Z,19.10
2022-07-29T22:36:27.712Z,19.00
2022-07-29T22:38:54.678Z,18.90
2022-07-29T22:41:21.571Z,18.90
2022-07-29T22:43:48.446Z,18.80
2022-07-29T22:46:15.471Z,18.80
2022-07-29T22:48:42.501Z,18.80
2022-07-29T22:51:09.455Z,18.80
2022-07-29T22:53:37.085Z,18.80
2022-07-29T22:56:04.305Z,18.80
2022-07-29T22:58:31.275Z,18.80
2022-07-29T23:00:58.411Z,18.70
2022-07-29T23:03:25.852Z,18.70
2022-07-29T23:05:52.915Z,18.70
2022-07-29T23:08:20.294Z,18.70
2022-07-29T23:10:47.575Z,18.60
2022-07-29T23:13:14.640Z,18.60
2022-07-29T23:15:41.816Z,18.60
2022-07-29T23:18:09.047Z,18.50
2022-07-29T23:20:36.420Z,18.60
2022-07-29T23:23:03.327Z,18.60
2022-07-29T23:25:33.523Z,18.60
2022-07-29T23:28:00.669Z,18.60
2022-07-29T23:30:28.661Z,18.60
2022-07-29T23:32:55.811Z,18.50
2022-07-29T23:35:23.176Z,18.40
2022-07-29T23:37:50.087Z,18.40
2022-07-29T23:40:17.029Z,18.30
2022-07-29T23:42:44.168Z,18.30
2022-07-29T23:45:12.501Z,18.30
2022-07-29T23:47:40.116Z,18.30
2022-07-29T23:50:08.787Z,18.30
2022-07-29T23:52:35.742Z,18.30
2022-07-29T23:55:36.908Z,18.20
2022-07-29T23:57:50.164Z,18.10
